createdAt,value
2018-08-23T00:00:01.512Z,860.24
2018-08-23T00:01:01.388Z,860.21
2018-08-23T00:02:01.267Z,860.20
2018-08-23T00:03:01.152Z,860.22
2018-08-23T00:04:01.025Z,860.19
2018-08-23T00:05:00.901Z,860.18
2018-08-23T00:06:00.781Z,860.19
2018-08-23T00:07:00.658Z,860.22
2018-08-23T00:08:00.551Z,860.18
2018-08-23T00:09:00.410Z,860.23
2018-08-23T00:10:00.850Z,860.18
2018-08-23T00:11:00.168Z,860.20
2018-08-23T00:12:00.046Z,860.19
2018-08-23T00:12:59.923Z,860.18
2018-08-23T00:13:59.802Z,860.17
2018-08-23T00:14:59.677Z,860.18
2018-08-23T00:15:59.555Z,860.13
2018-08-23T00:16:59.432Z,860.15
2018-08-23T00:17:59.318Z,860.18
2018-08-23T00:18:59.189Z,860.13
2018-08-23T00:19:59.067Z,860.15
2018-08-23T00:20:58.945Z,860.17
2018-08-23T00:21:58.821Z,860.12
2018-08-23T00:22:58.700Z,860.12
2018-08-23T00:23:58.576Z,860.11
2018-08-23T00:24:58.452Z,860.10
2018-08-23T00:25:58.331Z,860.08
2018-08-23T00:26:58.229Z,860.11
2018-08-23T00:27:58.093Z,860.06
2018-08-23T00:28:57.963Z,860.06
2018-08-23T00:29:57.841Z,860.03
2018-08-23T00:30:57.725Z,860.02
2018-08-23T00:31:57.597Z,859.96
2018-08-23T00:32:57.475Z,859.97
2018-08-23T00:33:57.353Z,859.96
2018-08-23T00:34:57.229Z,859.89
2018-08-23T00:35:57.107Z,859.88
2018-08-23T00:36:56.985Z,859.86
2018-08-23T00:37:56.869Z,859.87
2018-08-23T00:38:56.878Z,859.87
2018-08-23T00:39:56.622Z,859.85
2018-08-23T00:40:56.495Z,859.82
2018-08-23T00:41:56.375Z,859.84
2018-08-23T00:42:56.250Z,859.84
2018-08-23T00:43:56.128Z,859.83
2018-08-23T00:44:56.005Z,859.82
2018-08-23T00:45:57.420Z,859.79
2018-08-23T00:46:55.762Z,859.79
2018-08-23T00:47:55.637Z,859.78
2018-08-23T00:48:55.514Z,859.79
2018-08-23T00:49:55.394Z,859.78
2018-08-23T00:50:55.275Z,859.78
2018-08-23T00:51:55.149Z,859.76
2018-08-23T00:52:55.027Z,859.81
2018-08-23T00:53:54.904Z,859.79
2018-08-23T00:54:54.780Z,859.80
2018-08-23T00:55:54.657Z,859.76
2018-08-23T00:56:54.537Z,859.74
2018-08-23T00:57:54.417Z,859.76
2018-08-23T00:58:54.290Z,859.75
2018-08-23T00:59:54.169Z,859.76
2018-08-23T01:00:54.047Z,859.75
2018-08-23T01:01:53.927Z,859.78
2018-08-23T01:02:53.806Z,859.75
2018-08-23T01:03:53.684Z,859.76
2018-08-23T01:04:53.558Z,859.73
2018-08-23T01:05:53.436Z,859.72
2018-08-23T01:06:53.312Z,859.72
2018-08-23T01:07:53.187Z,859.68
2018-08-23T01:08:53.068Z,859.67
2018-08-23T01:09:52.945Z,859.63
2018-08-23T01:10:52.825Z,859.63
2018-08-23T01:11:52.703Z,859.63
2018-08-23T01:12:52.577Z,859.61
2018-08-23T01:13:52.456Z,859.57
2018-08-23T01:14:52.333Z,859.58
2018-08-23T01:15:52.210Z,859.60
2018-08-23T01:16:52.092Z,859.57
2018-08-23T01:17:51.965Z,859.60
2018-08-23T01:18:51.843Z,859.56
2018-08-23T01:19:51.720Z,859.56
2018-08-23T01:20:51.596Z,859.56
2018-08-23T01:21:51.477Z,859.54
2018-08-23T01:22:51.355Z,859.52
2018-08-23T01:23:51.231Z,859.48
2018-08-23T01:24:51.109Z,859.48
2018-08-23T01:25:50.985Z,859.46
2018-08-23T01:26:50.864Z,859.47
2018-08-23T01:27:50.740Z,859.43
2018-08-23T01:28:50.620Z,859.45
2018-08-23T01:29:50.496Z,859.42
2018-08-23T01:30:50.376Z,859.40
2018-08-23T01:31:50.255Z,859.38
2018-08-23T01:32:50.130Z,859.34
2018-08-23T01:33:50.007Z,859.33
2018-08-23T01:34:49.883Z,859.35
2018-08-23T01:35:49.760Z,859.31
2018-08-23T01:36:49.641Z,859.29
2018-08-23T01:37:49.521Z,859.30
2018-08-23T01:38:49.396Z,859.33
2018-08-23T01:39:49.270Z,859.34
2018-08-23T01:40:49.148Z,859.31
2018-08-23T01:41:49.028Z,859.31
2018-08-23T01:42:48.909Z,859.30
2018-08-23T01:43:48.780Z,859.29
2018-08-23T01:44:48.661Z,859.30
2018-08-23T01:45:48.538Z,859.26
2018-08-23T01:46:48.413Z,859.24
2018-08-23T01:47:48.290Z,859.27
2018-08-23T01:48:48.170Z,859.25
2018-08-23T01:49:48.045Z,859.23
2018-08-23T01:50:47.928Z,859.20
2018-08-23T01:51:47.803Z,859.25
2018-08-23T01:52:47.678Z,859.24
2018-08-23T01:53:47.558Z,859.24
2018-08-23T01:54:47.436Z,859.21
2018-08-23T01:55:47.311Z,859.23
2018-08-23T01:56:47.188Z,859.25
2018-08-23T01:57:47.069Z,859.23
2018-08-23T01:58:46.944Z,859.28
2018-08-23T01:59:46.824Z,859.25
2018-08-23T02:00:46.698Z,859.25
2018-08-23T02:01:46.576Z,859.24
2018-08-23T02:02:48.440Z,859.22
2018-08-23T02:03:46.331Z,859.23
2018-08-23T02:04:46.210Z,859.22
2018-08-23T02:05:46.084Z,859.24
2018-08-23T02:06:46.891Z,859.23
2018-08-23T02:07:45.839Z,859.18
2018-08-23T02:08:45.718Z,859.19
2018-08-23T02:09:45.596Z,859.17
2018-08-23T02:10:45.472Z,859.16
2018-08-23T02:11:45.348Z,859.18
2018-08-23T02:12:45.227Z,859.20
2018-08-23T02:13:45.108Z,859.18
2018-08-23T02:14:44.984Z,859.14
2018-08-23T02:15:44.857Z,859.15
2018-08-23T02:16:44.736Z,859.15
2018-08-23T02:17:44.613Z,859.17
2018-08-23T02:18:44.495Z,859.18
2018-08-23T02:19:44.366Z,859.18
2018-08-23T02:20:44.245Z,859.21
2018-08-23T02:21:44.123Z,859.19
2018-08-23T02:22:44.000Z,859.15
2018-08-23T02:23:43.875Z,859.18
2018-08-23T02:24:43.752Z,859.18
2018-08-23T02:25:43.631Z,859.19
2018-08-23T02:26:43.508Z,859.17
2018-08-23T02:27:43.388Z,859.18
2018-08-23T02:28:43.263Z,859.18
2018-08-23T02:29:43.140Z,859.16
2018-08-23T02:30:43.017Z,859.15
2018-08-23T02:31:42.895Z,859.15
2018-08-23T02:32:42.771Z,859.16
2018-08-23T02:33:42.650Z,859.14
2018-08-23T02:34:42.530Z,859.16
2018-08-23T02:35:42.894Z,859.10
2018-08-23T02:36:42.283Z,859.11
2018-08-23T02:37:42.159Z,859.11
2018-08-23T02:38:42.038Z,859.12
2018-08-23T02:39:41.914Z,859.11
2018-08-23T02:40:41.794Z,859.12
2018-08-23T02:41:41.670Z,859.09
2018-08-23T02:42:41.550Z,859.13
2018-08-23T02:43:41.427Z,859.12
2018-08-23T02:44:41.367Z,859.09
2018-08-23T02:45:41.190Z,859.11
2018-08-23T02:46:41.059Z,859.10
2018-08-23T02:47:40.938Z,859.12
2018-08-23T02:48:40.815Z,859.12
2018-08-23T02:49:40.693Z,859.11
2018-08-23T02:50:40.573Z,859.12
2018-08-23T02:51:40.451Z,859.14
2018-08-23T02:52:40.325Z,859.10
2018-08-23T02:53:40.205Z,859.06
2018-08-23T02:54:40.081Z,859.10
2018-08-23T02:55:39.959Z,859.13
2018-08-23T02:56:39.839Z,859.09
2018-08-23T02:57:39.714Z,859.10
2018-08-23T02:58:39.595Z,859.05
2018-08-23T02:59:39.470Z,859.01
2018-08-23T03:00:39.357Z,859.02
2018-08-23T03:01:39.226Z,858.99
2018-08-23T03:02:39.102Z,859.00
2018-08-23T03:03:40.955Z,858.97
2018-08-23T03:04:40.457Z,858.96
2018-08-23T03:05:38.735Z,859.00
2018-08-23T03:06:38.615Z,858.96
2018-08-23T03:07:38.490Z,858.95
2018-08-23T03:08:38.370Z,858.96
2018-08-23T03:09:38.246Z,858.95
2018-08-23T03:10:38.126Z,858.92
2018-08-23T03:11:38.003Z,858.92
2018-08-23T03:12:37.880Z,858.94
2018-08-23T03:13:37.759Z,858.92
2018-08-23T03:14:37.637Z,858.92
2018-08-23T03:15:37.513Z,858.88
2018-08-23T03:16:37.390Z,858.93
2018-08-23T03:17:37.272Z,858.90
2018-08-23T03:18:37.145Z,858.92
2018-08-23T03:19:37.029Z,858.90
2018-08-23T03:20:36.904Z,858.93
2018-08-23T03:21:36.782Z,858.92
2018-08-23T03:22:36.662Z,858.95
2018-08-23T03:23:36.536Z,858.93
2018-08-23T03:24:36.416Z,858.97
2018-08-23T03:25:36.295Z,858.94
2018-08-23T03:26:36.172Z,858.92
2018-08-23T03:27:36.048Z,858.93
2018-08-23T03:28:35.925Z,858.90
2018-08-23T03:29:35.801Z,858.91
2018-08-23T03:30:35.680Z,858.87
2018-08-23T03:31:35.557Z,858.92
2018-08-23T03:32:35.445Z,858.87
2018-08-23T03:33:35.313Z,858.88
2018-08-23T03:34:35.192Z,858.87
2018-08-23T03:35:35.069Z,858.84
2018-08-23T03:36:34.948Z,858.84
2018-08-23T03:37:34.825Z,858.82
2018-08-23T03:38:34.705Z,858.84
2018-08-23T03:39:34.580Z,858.82
2018-08-23T03:40:34.461Z,858.81
2018-08-23T03:41:34.341Z,858.81
2018-08-23T03:42:34.217Z,858.80
2018-08-23T03:43:34.095Z,858.76
2018-08-23T03:44:33.969Z,858.78
2018-08-23T03:45:33.850Z,858.80
2018-08-23T03:46:33.729Z,858.80
2018-08-23T03:47:33.608Z,858.80
2018-08-23T03:48:33.481Z,858.77
2018-08-23T03:49:33.361Z,858.80
2018-08-23T03:50:33.242Z,858.75
2018-08-23T03:51:33.124Z,858.74
2018-08-23T03:52:35.061Z,858.77
2018-08-23T03:53:36.478Z,858.71
2018-08-23T03:54:32.812Z,858.70
2018-08-23T03:55:32.633Z,858.67
2018-08-23T03:56:32.516Z,858.69
2018-08-23T03:57:32.382Z,858.66
2018-08-23T03:58:32.261Z,858.65
2018-08-23T03:59:32.136Z,858.66
2018-08-23T04:00:32.015Z,858.59
2018-08-23T04:01:31.894Z,858.59
2018-08-23T04:02:31.781Z,858.57
2018-08-23T04:03:31.649Z,858.57
2018-08-23T04:04:31.525Z,858.60
2018-08-23T04:05:31.408Z,858.59
2018-08-23T04:06:31.280Z,858.55
2018-08-23T04:07:31.158Z,858.55
2018-08-23T04:08:31.036Z,858.59
2018-08-23T04:09:30.915Z,858.57
2018-08-23T04:10:30.790Z,858.55
2018-08-23T04:11:30.672Z,858.56
2018-08-23T04:12:30.546Z,858.55
2018-08-23T04:13:30.423Z,858.55
2018-08-23T04:14:30.303Z,858.53
2018-08-23T04:15:30.307Z,858.52
2018-08-23T04:16:30.055Z,858.52
2018-08-23T04:17:29.934Z,858.51
2018-08-23T04:18:29.813Z,858.52
2018-08-23T04:19:29.699Z,858.52
2018-08-23T04:20:29.567Z,858.55
2018-08-23T04:21:29.444Z,858.55
2018-08-23T04:22:29.322Z,858.55
2018-08-23T04:23:29.200Z,858.52
2018-08-23T04:24:29.091Z,858.50
2018-08-23T04:25:28.958Z,858.52
2018-08-23T04:26:28.837Z,858.52
2018-08-23T04:27:28.710Z,858.52
2018-08-23T04:28:28.589Z,858.53
2018-08-23T04:29:28.467Z,858.55
2018-08-23T04:30:28.346Z,858.53
2018-08-23T04:31:28.224Z,858.53
2018-08-23T04:32:28.962Z,858.55
2018-08-23T04:33:27.979Z,858.53
2018-08-23T04:34:27.859Z,858.57
2018-08-23T04:35:27.736Z,858.54
2018-08-23T04:36:27.619Z,858.56
2018-08-23T04:37:27.488Z,858.53
2018-08-23T04:38:27.366Z,858.54
2018-08-23T04:39:27.246Z,858.55
2018-08-23T04:40:27.123Z,858.56
2018-08-23T04:41:27.001Z,858.57
2018-08-23T04:42:26.879Z,858.56
2018-08-23T04:43:26.885Z,858.56
2018-08-23T04:44:26.645Z,858.55
2018-08-23T04:45:26.511Z,858.57
2018-08-23T04:46:26.389Z,858.55
2018-08-23T04:47:26.268Z,858.50
2018-08-23T04:48:26.143Z,858.52
2018-08-23T04:49:26.021Z,858.51
2018-08-23T04:50:25.903Z,858.51
2018-08-23T04:51:25.777Z,858.46
2018-08-23T04:52:25.657Z,858.44
2018-08-23T04:53:25.534Z,858.46
2018-08-23T04:54:25.413Z,858.46
2018-08-23T04:55:25.289Z,858.45
2018-08-23T04:56:25.166Z,858.49
2018-08-23T04:57:25.047Z,858.46
2018-08-23T04:58:24.924Z,858.53
2018-08-23T04:59:24.803Z,858.50
2018-08-23T05:00:24.679Z,858.55
2018-08-23T05:01:24.918Z,858.57
2018-08-23T05:02:24.433Z,858.57
2018-08-23T05:03:24.314Z,858.54
2018-08-23T05:04:24.190Z,858.57
2018-08-23T05:05:24.067Z,858.55
2018-08-23T05:06:23.949Z,858.57
2018-08-23T05:07:23.824Z,858.55
2018-08-23T05:08:23.708Z,858.55
2018-08-23T05:09:23.579Z,858.58
2018-08-23T05:10:23.459Z,858.55
2018-08-23T05:11:23.336Z,858.54
2018-08-23T05:12:23.213Z,858.56
2018-08-23T05:13:23.091Z,858.57
2018-08-23T05:14:22.969Z,858.60
2018-08-23T05:15:22.848Z,858.61
2018-08-23T05:16:22.729Z,858.60
2018-08-23T05:17:22.604Z,858.63
2018-08-23T05:18:22.486Z,858.58
2018-08-23T05:19:22.363Z,858.63
2018-08-23T05:20:22.240Z,858.64
2018-08-23T05:21:22.115Z,858.67
2018-08-23T05:22:21.997Z,858.62
2018-08-23T05:23:21.940Z,858.62
2018-08-23T05:24:21.750Z,858.63
2018-08-23T05:25:21.627Z,858.59
2018-08-23T05:26:21.508Z,858.61
2018-08-23T05:27:21.383Z,858.63
2018-08-23T05:28:21.264Z,858.64
2018-08-23T05:29:21.143Z,858.59
2018-08-23T05:30:21.017Z,858.64
2018-08-23T05:31:20.898Z,858.64
2018-08-23T05:32:20.774Z,858.62
2018-08-23T05:33:20.655Z,858.63
2018-08-23T05:34:20.531Z,858.63
2018-08-23T05:35:20.410Z,858.62
2018-08-23T05:36:20.287Z,858.66
2018-08-23T05:37:20.165Z,858.64
2018-08-23T05:38:20.044Z,858.65
2018-08-23T05:39:19.924Z,858.64
2018-08-23T05:40:19.800Z,858.64
2018-08-23T05:41:19.682Z,858.64
2018-08-23T05:42:19.560Z,858.65
2018-08-23T05:43:19.436Z,858.66
2018-08-23T05:44:19.315Z,858.68
2018-08-23T05:45:19.194Z,858.66
2018-08-23T05:46:19.071Z,858.67
2018-08-23T05:47:18.951Z,858.68
2018-08-23T05:48:18.828Z,858.71
2018-08-23T05:49:18.708Z,858.69
2018-08-23T05:50:18.586Z,858.68
2018-08-23T05:51:18.466Z,858.69
2018-08-23T05:52:18.344Z,858.65
2018-08-23T05:53:18.224Z,858.65
2018-08-23T05:54:18.100Z,858.68
2018-08-23T05:55:17.977Z,858.68
2018-08-23T05:56:17.858Z,858.65
2018-08-23T05:57:17.737Z,858.65
2018-08-23T05:58:17.613Z,858.63
2018-08-23T05:59:17.491Z,858.61
2018-08-23T06:00:17.375Z,858.62
2018-08-23T06:01:17.249Z,858.60
2018-08-23T06:02:17.132Z,858.60
2018-08-23T06:03:17.005Z,858.58
2018-08-23T06:04:16.887Z,858.58
2018-08-23T06:05:16.766Z,858.59
2018-08-23T06:06:16.645Z,858.60
2018-08-23T06:07:16.519Z,858.59
2018-08-23T06:08:16.447Z,858.61
2018-08-23T06:09:16.278Z,858.54
2018-08-23T06:10:16.159Z,858.56
2018-08-23T06:11:16.034Z,858.54
2018-08-23T06:12:15.917Z,858.57
2018-08-23T06:13:15.801Z,858.52
2018-08-23T06:14:15.743Z,858.56
2018-08-23T06:15:15.550Z,858.56
2018-08-23T06:16:15.432Z,858.54
2018-08-23T06:17:15.461Z,858.53
2018-08-23T06:18:17.096Z,858.53
2018-08-23T06:19:15.067Z,858.52
2018-08-23T06:20:14.946Z,858.50
2018-08-23T06:21:14.826Z,858.54
2018-08-23T06:22:14.713Z,858.49
2018-08-23T06:23:14.587Z,858.49
2018-08-23T06:24:14.463Z,858.50
2018-08-23T06:25:14.345Z,858.49
2018-08-23T06:26:14.226Z,858.48
2018-08-23T06:27:14.130Z,858.51
2018-08-23T06:28:13.983Z,858.49
2018-08-23T06:29:13.859Z,858.52
2018-08-23T06:30:13.742Z,858.47
2018-08-23T06:31:13.619Z,858.47
2018-08-23T06:32:15.011Z,858.47
2018-08-23T06:33:13.474Z,858.50
2018-08-23T06:34:13.257Z,858.50
2018-08-23T06:35:13.181Z,858.48
2018-08-23T06:36:13.013Z,858.50
2018-08-23T06:37:15.515Z,858.48
2018-08-23T06:38:12.773Z,858.49
2018-08-23T06:39:12.654Z,858.48
2018-08-23T06:40:12.531Z,858.47
2018-08-23T06:41:12.410Z,858.47
2018-08-23T06:42:12.291Z,858.47
2018-08-23T06:43:12.165Z,858.44
2018-08-23T06:44:12.045Z,858.46
2018-08-23T06:45:11.927Z,858.42
2018-08-23T06:46:11.849Z,858.45
2018-08-23T06:47:11.685Z,858.44
2018-08-23T06:48:11.565Z,858.42
2018-08-23T06:49:11.443Z,858.41
2018-08-23T06:50:11.321Z,858.45
2018-08-23T06:51:11.246Z,858.45
2018-08-23T06:52:11.078Z,858.45
2018-08-23T06:53:10.960Z,858.43
2018-08-23T06:54:10.840Z,858.44
2018-08-23T06:55:10.717Z,858.41
2018-08-23T06:56:10.593Z,858.43
2018-08-23T06:57:10.475Z,858.42
2018-08-23T06:58:10.931Z,858.42
2018-08-23T06:59:10.235Z,858.42
2018-08-23T07:00:10.115Z,858.38
2018-08-23T07:01:09.997Z,858.36
2018-08-23T07:02:09.873Z,858.33
2018-08-23T07:03:09.752Z,858.35
2018-08-23T07:04:09.629Z,858.35
2018-08-23T07:05:09.511Z,858.37
2018-08-23T07:06:09.386Z,858.36
2018-08-23T07:07:09.291Z,858.38
2018-08-23T07:08:09.145Z,858.35
2018-08-23T07:09:09.026Z,858.38
2018-08-23T07:10:08.907Z,858.38
2018-08-23T07:11:08.782Z,858.35
2018-08-23T07:12:08.663Z,858.33
2018-08-23T07:13:08.544Z,858.35
2018-08-23T07:14:08.421Z,858.33
2018-08-23T07:15:08.299Z,858.32
2018-08-23T07:16:08.181Z,858.31
2018-08-23T07:17:08.079Z,858.33
2018-08-23T07:18:07.941Z,858.29
2018-08-23T07:19:07.821Z,858.32
2018-08-23T07:20:07.699Z,858.31
2018-08-23T07:21:07.583Z,858.29
2018-08-23T07:22:07.456Z,858.27
2018-08-23T07:23:07.335Z,858.28
2018-08-23T07:24:07.232Z,858.28
2018-08-23T07:25:07.095Z,858.28
2018-08-23T07:26:06.972Z,858.29
2018-08-23T07:27:06.931Z,858.26
2018-08-23T07:28:06.737Z,858.24
2018-08-23T07:29:06.625Z,858.21
2018-08-23T07:30:06.623Z,858.23
2018-08-23T07:31:06.370Z,858.20
2018-08-23T07:32:06.255Z,858.24
2018-08-23T07:33:06.173Z,858.21
2018-08-23T07:34:06.011Z,858.22
2018-08-23T07:35:05.889Z,858.19
2018-08-23T07:36:05.774Z,858.19
2018-08-23T07:37:05.649Z,858.18
2018-08-23T07:38:05.529Z,858.20
2018-08-23T07:39:05.417Z,858.15
2018-08-23T07:40:05.301Z,858.18
2018-08-23T07:41:05.171Z,858.21
2018-08-23T07:42:05.050Z,858.19
2018-08-23T07:43:04.943Z,858.21
2018-08-23T07:44:04.812Z,858.19
2018-08-23T07:45:04.694Z,858.20
2018-08-23T07:46:04.572Z,858.25
2018-08-23T07:47:04.454Z,858.25
2018-08-23T07:48:06.034Z,858.25
2018-08-23T07:49:04.219Z,858.22
2018-08-23T07:50:04.101Z,858.24
2018-08-23T07:51:03.981Z,858.23
2018-08-23T07:52:03.860Z,858.24
2018-08-23T07:53:03.837Z,858.25
2018-08-23T07:54:03.620Z,858.20
2018-08-23T07:55:03.506Z,858.22
2018-08-23T07:56:03.383Z,858.20
2018-08-23T07:57:03.265Z,858.21
2018-08-23T07:58:03.149Z,858.24
2018-08-23T07:59:03.029Z,858.23
2018-08-23T08:00:02.910Z,858.22
2018-08-23T08:01:02.795Z,858.23
2018-08-23T08:02:02.676Z,858.24
2018-08-23T08:03:02.559Z,858.22
2018-08-23T08:04:02.441Z,858.20
2018-08-23T08:05:02.318Z,858.20
2018-08-23T08:06:02.204Z,858.22
2018-08-23T08:07:02.086Z,858.22
2018-08-23T08:08:01.968Z,858.22
2018-08-23T08:09:01.851Z,858.19
2018-08-23T08:10:01.728Z,858.18
2018-08-23T08:11:01.610Z,858.21
2018-08-23T08:12:01.495Z,858.18
2018-08-23T08:13:01.375Z,858.21
2018-08-23T08:14:01.258Z,858.22
2018-08-23T08:15:01.235Z,858.22
2018-08-23T08:16:01.020Z,858.19
2018-08-23T08:17:00.902Z,858.20
2018-08-23T08:18:00.785Z,858.20
2018-08-23T08:19:00.663Z,858.18
2018-08-23T08:20:00.549Z,858.18
2018-08-23T08:21:00.498Z,858.18
2018-08-23T08:22:00.311Z,858.21
2018-08-23T08:23:00.192Z,858.19
2018-08-23T08:24:00.075Z,858.22
2018-08-23T08:24:59.957Z,858.20
2018-08-23T08:25:59.838Z,858.17
2018-08-23T08:26:59.736Z,858.17
2018-08-23T08:27:59.601Z,858.14
2018-08-23T08:28:59.484Z,858.14
2018-08-23T08:29:59.364Z,858.12
2018-08-23T08:30:59.247Z,858.11
2018-08-23T08:31:59.130Z,858.12
2018-08-23T08:32:59.012Z,858.11
2018-08-23T08:33:58.893Z,858.13
2018-08-23T08:34:58.776Z,858.11
2018-08-23T08:35:58.662Z,858.12
2018-08-23T08:36:58.543Z,858.06
2018-08-23T08:37:58.424Z,858.05
2018-08-23T08:38:58.309Z,858.09
2018-08-23T08:39:58.185Z,858.06
2018-08-23T08:40:58.070Z,858.07
2018-08-23T08:41:58.000Z,858.07
2018-08-23T08:42:57.831Z,858.08
2018-08-23T08:43:57.715Z,858.10
2018-08-23T08:44:57.596Z,858.14
2018-08-23T08:45:57.478Z,858.09
2018-08-23T08:46:57.361Z,858.10
2018-08-23T08:47:57.244Z,858.11
2018-08-23T08:48:57.124Z,858.12
2018-08-23T08:49:57.009Z,858.11
2018-08-23T08:50:56.889Z,858.09
2018-08-23T08:51:56.774Z,858.07
2018-08-23T08:52:56.655Z,858.11
2018-08-23T08:53:56.536Z,858.11
2018-08-23T08:54:56.941Z,858.08
2018-08-23T08:55:56.301Z,858.08
2018-08-23T08:56:56.261Z,858.05
2018-08-23T08:57:56.068Z,858.10
2018-08-23T08:58:55.947Z,858.08
2018-08-23T08:59:55.831Z,858.06
2018-08-23T09:00:55.718Z,858.07
2018-08-23T09:01:55.594Z,858.10
2018-08-23T09:02:55.477Z,858.12
2018-08-23T09:03:55.358Z,858.11
2018-08-23T09:04:55.240Z,858.07
2018-08-23T09:05:55.126Z,858.08
2018-08-23T09:06:55.006Z,858.16
2018-08-23T09:07:54.889Z,858.11
2018-08-23T09:08:54.771Z,858.12
2018-08-23T09:09:54.678Z,858.14
2018-08-23T09:10:54.540Z,858.09
2018-08-23T09:11:54.419Z,858.07
2018-08-23T09:12:54.303Z,858.08
2018-08-23T09:13:54.200Z,858.04
2018-08-23T09:14:54.068Z,858.06
2018-08-23T09:15:53.951Z,858.03
2018-08-23T09:16:53.836Z,858.06
2018-08-23T09:17:53.723Z,858.03
2018-08-23T09:18:53.664Z,858.05
2018-08-23T09:19:53.486Z,858.01
2018-08-23T09:20:53.449Z,858.01
2018-08-23T09:21:53.253Z,857.99
2018-08-23T09:22:53.135Z,858.00
2018-08-23T09:23:53.021Z,857.95
2018-08-23T09:24:52.902Z,858.00
2018-08-23T09:25:54.565Z,857.99
2018-08-23T09:26:52.672Z,857.94
2018-08-23T09:27:52.555Z,857.95
2018-08-23T09:28:52.437Z,857.93
2018-08-23T09:29:52.324Z,857.95
2018-08-23T09:30:52.206Z,857.97
2018-08-23T09:31:52.089Z,857.95
2018-08-23T09:32:51.973Z,857.91
2018-08-23T09:33:51.858Z,857.95
2018-08-23T09:34:51.829Z,857.93
2018-08-23T09:35:51.625Z,857.91
2018-08-23T09:36:51.510Z,857.89
2018-08-23T09:37:51.422Z,857.89
2018-08-23T09:38:51.280Z,857.87
2018-08-23T09:39:51.160Z,857.88
2018-08-23T09:40:51.047Z,857.87
2018-08-23T09:41:50.928Z,857.91
2018-08-23T09:42:50.827Z,857.87
2018-08-23T09:43:50.696Z,857.85
2018-08-23T09:44:50.585Z,857.89
2018-08-23T09:45:50.466Z,857.86
2018-08-23T09:46:50.350Z,857.84
2018-08-23T09:47:50.237Z,857.81
2018-08-23T09:48:50.120Z,857.83
2018-08-23T09:49:50.005Z,857.79
2018-08-23T09:50:49.988Z,857.78
2018-08-23T09:51:49.771Z,857.80
2018-08-23T09:52:49.655Z,857.79
2018-08-23T09:53:49.538Z,857.78
2018-08-23T09:54:49.421Z,857.78
2018-08-23T09:55:49.309Z,857.81
2018-08-23T09:56:49.200Z,857.76
2018-08-23T09:57:49.076Z,857.77
2018-08-23T09:58:49.008Z,857.76
2018-08-23T09:59:48.844Z,857.76
2018-08-23T10:00:48.732Z,857.71
2018-08-23T10:01:48.612Z,857.72
2018-08-23T10:02:48.497Z,857.67
2018-08-23T10:03:48.380Z,857.66
2018-08-23T10:04:48.274Z,857.64
2018-08-23T10:05:48.149Z,857.66
2018-08-23T10:06:48.036Z,857.66
2018-08-23T10:07:47.918Z,857.65
2018-08-23T10:08:47.802Z,857.67
2018-08-23T10:09:47.688Z,857.65
2018-08-23T10:10:47.571Z,857.64
2018-08-23T10:11:47.498Z,857.66
2018-08-23T10:12:47.343Z,857.66
2018-08-23T10:13:47.222Z,857.61
2018-08-23T10:14:47.105Z,857.62
2018-08-23T10:15:46.990Z,857.57
2018-08-23T10:16:46.874Z,857.59
2018-08-23T10:17:46.758Z,857.59
2018-08-23T10:18:46.641Z,857.55
2018-08-23T10:19:46.529Z,857.54
2018-08-23T10:20:46.414Z,857.56
2018-08-23T10:21:46.295Z,857.53
2018-08-23T10:22:46.945Z,857.52
2018-08-23T10:23:46.066Z,857.45
2018-08-23T10:24:45.951Z,857.44
2018-08-23T10:25:45.831Z,857.40
2018-08-23T10:26:45.717Z,857.38
2018-08-23T10:27:45.603Z,857.41
2018-08-23T10:28:45.487Z,857.36
2018-08-23T10:29:45.374Z,857.37
2018-08-23T10:30:45.253Z,857.35
2018-08-23T10:31:45.141Z,857.34
2018-08-23T10:32:45.025Z,857.33
2018-08-23T10:33:44.910Z,857.34
2018-08-23T10:34:44.794Z,857.33
2018-08-23T10:35:44.678Z,857.33
2018-08-23T10:36:44.561Z,857.32
2018-08-23T10:37:44.446Z,857.33
2018-08-23T10:38:44.330Z,857.34
2018-08-23T10:39:44.221Z,857.31
2018-08-23T10:40:44.102Z,857.30
2018-08-23T10:41:43.987Z,857.24
2018-08-23T10:42:43.871Z,857.23
2018-08-23T10:43:43.755Z,857.22
2018-08-23T10:44:43.652Z,857.23
2018-08-23T10:45:43.525Z,857.23
2018-08-23T10:46:43.408Z,857.23
2018-08-23T10:47:43.297Z,857.21
2018-08-23T10:48:43.181Z,857.24
2018-08-23T10:49:43.062Z,857.17
2018-08-23T10:50:42.968Z,857.19
2018-08-23T10:51:42.950Z,857.17
2018-08-23T10:52:42.720Z,857.22
2018-08-23T10:53:42.603Z,857.20
2018-08-23T10:54:42.490Z,857.21
2018-08-23T10:55:42.374Z,857.22
2018-08-23T10:56:42.260Z,857.16
2018-08-23T10:57:42.148Z,857.16
2018-08-23T10:58:42.029Z,857.13
2018-08-23T10:59:41.919Z,857.16
2018-08-23T11:00:41.803Z,857.16
2018-08-23T11:01:41.690Z,857.18
2018-08-23T11:02:41.576Z,857.14
2018-08-23T11:03:41.462Z,857.10
2018-08-23T11:04:41.348Z,857.09
2018-08-23T11:05:41.238Z,857.08
2018-08-23T11:06:41.122Z,857.03
2018-08-23T11:07:41.007Z,857.05
2018-08-23T11:08:40.897Z,857.05
2018-08-23T11:09:40.839Z,857.05
2018-08-23T11:10:40.671Z,857.05
2018-08-23T11:11:40.559Z,857.02
2018-08-23T11:12:40.444Z,856.99
2018-08-23T11:13:40.333Z,857.03
2018-08-23T11:14:40.221Z,856.99
2018-08-23T11:15:40.108Z,857.03
2018-08-23T11:16:40.053Z,857.06
2018-08-23T11:17:39.886Z,857.03
2018-08-23T11:18:39.773Z,857.02
2018-08-23T11:19:39.655Z,856.99
2018-08-23T11:20:39.546Z,857.00
2018-08-23T11:21:39.432Z,856.98
2018-08-23T11:22:39.319Z,856.98
2018-08-23T11:23:39.204Z,856.96
2018-08-23T11:24:39.094Z,856.93
2018-08-23T11:25:38.979Z,856.94
2018-08-23T11:26:38.865Z,856.93
2018-08-23T11:27:38.756Z,856.95
2018-08-23T11:28:38.639Z,856.91
2018-08-23T11:29:38.660Z,856.90
2018-08-23T11:30:38.415Z,856.86
2018-08-23T11:31:38.302Z,856.90
2018-08-23T11:32:38.186Z,856.86
2018-08-23T11:33:38.072Z,856.85
2018-08-23T11:34:37.960Z,856.84
2018-08-23T11:35:37.846Z,856.84
2018-08-23T11:36:37.735Z,856.85
2018-08-23T11:37:37.622Z,856.79
2018-08-23T11:38:37.503Z,856.79
2018-08-23T11:39:39.112Z,856.78
2018-08-23T11:40:37.282Z,856.76
2018-08-23T11:41:37.167Z,856.75
2018-08-23T11:42:37.064Z,856.73
2018-08-23T11:43:36.938Z,856.75
2018-08-23T11:44:36.826Z,856.74
2018-08-23T11:45:36.712Z,856.72
2018-08-23T11:46:36.597Z,856.71
2018-08-23T11:47:36.484Z,856.72
2018-08-23T11:48:36.376Z,856.74
2018-08-23T11:49:36.259Z,856.74
2018-08-23T11:50:36.949Z,856.75
2018-08-23T11:51:36.035Z,856.76
2018-08-23T11:52:35.924Z,856.74
2018-08-23T11:53:36.012Z,856.77
2018-08-23T11:54:35.695Z,856.77
2018-08-23T11:55:35.581Z,856.75
2018-08-23T11:56:35.470Z,856.77
2018-08-23T11:57:35.356Z,856.72
2018-08-23T11:58:35.243Z,856.72
2018-08-23T11:59:35.128Z,856.67
2018-08-23T12:00:35.017Z,856.70
2018-08-23T12:01:34.904Z,856.76
2018-08-23T12:02:34.791Z,856.68
2018-08-23T12:03:34.679Z,856.69
2018-08-23T12:04:34.568Z,856.65
2018-08-23T12:05:34.454Z,856.71
2018-08-23T12:06:34.388Z,856.69
2018-08-23T12:07:34.233Z,856.68
2018-08-23T12:08:34.113Z,856.67
2018-08-23T12:09:34.002Z,856.70
2018-08-23T12:10:33.887Z,856.62
2018-08-23T12:11:33.775Z,856.67
2018-08-23T12:12:33.670Z,856.68
2018-08-23T12:13:33.552Z,856.70
2018-08-23T12:14:33.438Z,856.70
2018-08-23T12:15:33.380Z,856.71
2018-08-23T12:16:33.208Z,856.71
2018-08-23T12:17:33.096Z,856.71
2018-08-23T12:18:32.980Z,856.71
2018-08-23T12:19:32.954Z,856.68
2018-08-23T12:20:32.754Z,856.71
2018-08-23T12:21:32.638Z,856.71
2018-08-23T12:22:32.524Z,856.69
2018-08-23T12:23:32.426Z,856.70
2018-08-23T12:24:32.302Z,856.70
2018-08-23T12:25:32.188Z,856.72
2018-08-23T12:26:32.070Z,856.76